PWSweather.com
Personal Weather Stations
Station Observations
MENWDWX1
Menstrie, ScotlandGB

MenstrieScotlandGB

Lat: 56.148322, Lon: -3.85483

Elevation: 62

Station Type: Davis Vantage Pro 2

Latest ConditionsUpdated 5:15:01 AM GMT Thursday, Jun 27, 2019
Currently Today's Max Today's Min Today's Average
Temperature 49.4°F9.7°C 52.4°F11.3°C 48.8°F9.3°C 50.3°F10.2°C
Dew Point 41.5°F5.3°C 44.7°F7.1°C 41.2°F5.1°C 42.6°F5.9°C
Winds Calm Calm 3.5 mph -5.6 kmh - - 0.4 mph 0.6 kmh
Wind Gusts -- 4.6 mph7.4 kmh - -
Humidity 74% 75% 74% 75%
Pressure 30.46 in1031.5 mb 30.47 in1031.8 mb 30.46 in1031.5 mb -
Hour Temp Dew Point Humidity Winds Wind Gusts Pressure Precip Precip Rate Daily Precip Total
05:15 AM 49.4°F9.7°C 41.5°F5.3°C 74% Calm Calm -- 30.46 in1031.5 mb - 0.00 in0.0 mm 0.00 in0.0 mm
05:10 AM 49.2°F9.6°C 41.2°F5.1°C 74% Calm Calm -- 30.46 in1031.5 mb - 0.00 in0.0 mm 0.00 in0.0 mm
05:05 AM 49.0°F9.4°C 41.4°F5.2°C 75% Calm Calm -- 30.46 in1031.5 mb - 0.00 in0.0 mm 0.00 in0.0 mm
05:00 AM 48.9°F9.4°C 41.3°F5.2°C 75% Calm Calm -- 30.46 in1031.5 mb - 0.00 in0.0 mm 0.00 in0.0 mm
04:55 AM 48.9°F9.4°C 41.3°F5.2°C 75% Calm Calm -- 30.46 in1031.5 mb - 0.00 in0.0 mm 0.00 in0.0 mm
04:50 AM 48.8°F9.3°C 41.2°F5.1°C 75% Calm Calm -- 30.46 in1031.5 mb - 0.00 in0.0 mm 0.00 in0.0 mm
04:45 AM 48.8°F9.3°C 41.2°F5.1°C 75% Calm Calm -- 30.46 in1031.5 mb - 0.00 in0.0 mm 0.00 in0.0 mm
04:40 AM 48.8°F9.3°C 41.2°F5.1°C 75% Calm Calm -- 30.46 in1031.5 mb - 0.00 in0.0 mm 0.00 in0.0 mm
04:35 AM 48.8°F9.3°C 41.2°F5.1°C 75% Calm Calm -- 30.46 in1031.5 mb - 0.00 in0.0 mm 0.00 in0.0 mm
04:30 AM 48.8°F9.3°C 41.2°F5.1°C 75% Calm Calm -- 30.46 in1031.5 mb - 0.00 in0.0 mm 0.00 in0.0 mm
04:25 AM 48.8°F9.3°C 41.2°F5.1°C 75% Calm Calm -- 30.46 in1031.5 mb - 0.00 in0.0 mm 0.00 in0.0 mm
04:20 AM 48.8°F9.3°C 41.2°F5.1°C 75% Calm Calm -- 30.46 in1031.5 mb - 0.00 in0.0 mm 0.00 in0.0 mm
04:15 AM 48.9°F9.4°C 41.3°F5.2°C 75% Calm Calm -- 30.46 in1031.5 mb - 0.00 in0.0 mm 0.00 in0.0 mm
04:10 AM 48.9°F9.4°C 41.3°F5.2°C 75% Calm Calm -- 30.46 in1031.5 mb - 0.00 in0.0 mm 0.00 in0.0 mm
04:05 AM 49.1°F9.5°C 41.5°F5.3°C 75% Calm Calm -- 30.46 in1031.5 mb - 0.00 in0.0 mm 0.00 in0.0 mm
04:00 AM 49.2°F9.6°C 41.6°F5.3°C 75% Calm Calm -- 30.46 in1031.5 mb - 0.00 in0.0 mm 0.00 in0.0 mm
03:55 AM 49.4°F9.7°C 41.8°F5.4°C 75% Calm Calm -- 30.46 in1031.5 mb - 0.00 in0.0 mm 0.00 in0.0 mm
03:50 AM 49.6°F9.8°C 42.0°F5.6°C 75% Calm Calm -- 30.46 in1031.5 mb - 0.00 in0.0 mm 0.00 in0.0 mm
03:45 AM 49.6°F9.8°C 42.0°F5.6°C 75% Calm Calm -- 30.46 in1031.5 mb - 0.00 in0.0 mm 0.00 in0.0 mm
03:40 AM 49.4°F9.7°C 41.8°F5.4°C 75% Calm Calm -- 30.46 in1031.5 mb - 0.00 in0.0 mm 0.00 in0.0 mm
03:35 AM 49.4°F9.7°C 41.8°F5.4°C 75% Calm Calm -- 30.46 in1031.5 mb - 0.00 in0.0 mm 0.00 in0.0 mm
03:30 AM 49.4°F9.7°C 41.8°F5.4°C 75% 1.2 mph NNE1.9 kmh NNE 2.3 mph3.7 kmh 30.46 in1031.5 mb - 0.00 in0.0 mm 0.00 in0.0 mm
03:25 AM 49.4°F9.7°C 41.8°F5.4°C 75% 1.2 mph NNE1.9 kmh NNE 3.5 mph5.6 kmh 30.46 in1031.5 mb - 0.00 in0.0 mm 0.00 in0.0 mm
03:20 AM 49.4°F9.7°C 41.8°F5.4°C 75% Calm Calm -- 30.46 in1031.5 mb - 0.00 in0.0 mm 0.00 in0.0 mm
03:15 AM 49.4°F9.7°C 41.8°F5.4°C 75% Calm Calm -- 30.47 in1031.8 mb - 0.00 in0.0 mm 0.00 in0.0 mm
03:10 AM 49.4°F9.7°C 41.8°F5.4°C 75% Calm Calm -- 30.47 in1031.8 mb - 0.00 in0.0 mm 0.00 in0.0 mm
03:05 AM 49.4°F9.7°C 41.8°F5.4°C 75% Calm Calm -- 30.47 in1031.8 mb - 0.00 in0.0 mm 0.00 in0.0 mm
03:00 AM 49.4°F9.7°C 41.8°F5.4°C 75% Calm Calm -- 30.46 in1031.5 mb - 0.00 in0.0 mm 0.00 in0.0 mm
02:55 AM 49.5°F9.7°C 41.9°F5.5°C 75% Calm Calm -- 30.46 in1031.5 mb - 0.00 in0.0 mm 0.00 in0.0 mm
02:50 AM 49.7°F9.8°C 42.1°F5.6°C 75% Calm Calm -- 30.46 in1031.5 mb - 0.00 in0.0 mm 0.00 in0.0 mm
02:45 AM 49.7°F9.8°C 42.1°F5.6°C 75% 1.2 mph NNE1.9 kmh NNE 1.2 mph1.9 kmh 30.46 in1031.5 mb - 0.00 in0.0 mm 0.00 in0.0 mm
02:40 AM 49.7°F9.8°C 42.1°F5.6°C 75% Calm Calm 2.3 mph3.7 kmh 30.46 in1031.5 mb - 0.00 in0.0 mm 0.00 in0.0 mm
02:35 AM 49.8°F9.9°C 42.2°F5.7°C 75% Calm Calm -- 30.46 in1031.5 mb - 0.00 in0.0 mm 0.00 in0.0 mm
02:30 AM 50.0°F10.0°C 42.4°F5.8°C 75% Calm Calm -- 30.46 in1031.5 mb - 0.00 in0.0 mm 0.00 in0.0 mm
02:25 AM 50.3°F10.2°C 42.7°F5.9°C 75% 1.2 mph NNE1.9 kmh NNE 1.2 mph1.9 kmh 30.46 in1031.5 mb - 0.00 in0.0 mm 0.00 in0.0 mm
02:20 AM 50.7°F10.4°C 43.0°F6.1°C 75% Calm Calm -- 30.46 in1031.5 mb - 0.00 in0.0 mm 0.00 in0.0 mm
02:15 AM 51.1°F10.6°C 43.4°F6.3°C 75% 1.2 mph NNE1.9 kmh NNE 2.3 mph3.7 kmh 30.47 in1031.8 mb - 0.00 in0.0 mm 0.00 in0.0 mm
02:10 AM 51.3°F10.7°C 43.6°F6.4°C 75% 1.2 mph NNE1.9 kmh NNE 2.3 mph3.7 kmh 30.47 in1031.8 mb - 0.00 in0.0 mm 0.00 in0.0 mm
02:05 AM 51.2°F10.7°C 43.6°F6.4°C 75% 2.3 mph NNE3.7 kmh NNE 3.5 mph5.6 kmh 30.46 in1031.5 mb - 0.00 in0.0 mm 0.00 in0.0 mm
02:00 AM 51.2°F10.7°C 43.6°F6.4°C 75% 1.2 mph NNE1.9 kmh NNE 1.2 mph1.9 kmh 30.46 in1031.5 mb - 0.00 in0.0 mm 0.00 in0.0 mm
01:55 AM 51.2°F10.7°C 43.5°F6.4°C 75% 2.3 mph NNE3.7 kmh NNE 3.5 mph5.6 kmh 30.46 in1031.5 mb - 0.00 in0.0 mm 0.00 in0.0 mm
01:50 AM 51.2°F10.7°C 43.6°F6.4°C 75% 1.2 mph NNE1.9 kmh NNE 3.5 mph5.6 kmh 30.46 in1031.5 mb - 0.00 in0.0 mm 0.00 in0.0 mm
01:45 AM 51.3°F10.7°C 43.6°F6.4°C 75% Calm Calm -- 30.46 in1031.5 mb - 0.00 in0.0 mm 0.00 in0.0 mm
01:40 AM 51.0°F10.6°C 43.4°F6.3°C 75% Calm Calm 2.3 mph3.7 kmh 30.46 in1031.5 mb - 0.00 in0.0 mm 0.00 in0.0 mm
01:35 AM 50.6°F10.3°C 43.0°F6.1°C 75% 2.3 mph NNE3.7 kmh NNE 3.5 mph5.6 kmh 30.46 in1031.5 mb - 0.00 in0.0 mm 0.00 in0.0 mm
01:30 AM 50.5°F10.3°C 42.9°F6.1°C 75% Calm Calm -- 30.46 in1031.5 mb - 0.00 in0.0 mm 0.00 in0.0 mm
01:25 AM 50.3°F10.2°C 42.7°F5.9°C 75% Calm Calm -- 30.46 in1031.5 mb - 0.00 in0.0 mm 0.00 in0.0 mm
01:20 AM 50.5°F10.3°C 42.9°F6.1°C 75% Calm Calm -- 30.46 in1031.5 mb - 0.00 in0.0 mm 0.00 in0.0 mm
01:15 AM 50.8°F10.4°C 43.1°F6.2°C 75% Calm Calm -- 30.46 in1031.5 mb - 0.00 in0.0 mm 0.00 in0.0 mm
01:10 AM 51.0°F10.6°C 43.4°F6.3°C 75% Calm Calm -- 30.46 in1031.5 mb - 0.00 in0.0 mm 0.00 in0.0 mm
01:05 AM 51.4°F10.8°C 43.8°F6.6°C 75% Calm Calm -- 30.46 in1031.5 mb - 0.00 in0.0 mm 0.00 in0.0 mm
01:00 AM 51.7°F10.9°C 44.0°F6.7°C 75% Calm Calm -- 30.46 in1031.5 mb - 0.00 in0.0 mm 0.00 in0.0 mm
12:55 AM 51.9°F11.1°C 44.2°F6.8°C 75% 2.3 mph NNE3.7 kmh NNE 3.5 mph5.6 kmh 30.46 in1031.5 mb - 0.00 in0.0 mm 0.00 in0.0 mm
12:50 AM 51.9°F11.1°C 44.2°F6.8°C 75% Calm Calm 2.3 mph3.7 kmh 30.46 in1031.5 mb - 0.00 in0.0 mm 0.00 in0.0 mm
12:45 AM 51.8°F11.0°C 44.1°F6.7°C 75% 1.2 mph NNE1.9 kmh NNE 3.5 mph5.6 kmh 30.46 in1031.5 mb - 0.00 in0.0 mm 0.00 in0.0 mm
12:40 AM 51.7°F10.9°C 44.0°F6.7°C 75% Calm Calm -- 30.46 in1031.5 mb - 0.00 in0.0 mm 0.00 in0.0 mm
12:35 AM 51.4°F10.8°C 43.7°F6.5°C 75% Calm Calm -- 30.46 in1031.5 mb - 0.00 in0.0 mm 0.00 in0.0 mm
12:30 AM 51.7°F10.9°C 44.0°F6.7°C 75% Calm Calm -- 30.46 in1031.5 mb - 0.00 in0.0 mm 0.00 in0.0 mm
12:25 AM 52.1°F11.2°C 44.4°F6.9°C 75% Calm Calm -- 30.46 in1031.5 mb - 0.00 in0.0 mm 0.00 in0.0 mm
12:20 AM 52.4°F11.3°C 44.7°F7.1°C 75% Calm Calm -- 30.46 in1031.5 mb - 0.00 in0.0 mm 0.00 in0.0 mm
12:15 AM 52.4°F11.3°C 44.7°F7.1°C 75% 3.5 mph NNE5.6 kmh NNE 4.6 mph7.4 kmh 30.46 in1031.5 mb - 0.00 in0.0 mm 0.00 in0.0 mm
12:10 AM 52.3°F11.3°C 44.6°F7.0°C 75% 2.3 mph WNW3.7 kmh WNW 3.5 mph5.6 kmh 30.46 in1031.5 mb - 0.00 in0.0 mm 0.00 in0.0 mm
12:05 AM 52.2°F11.2°C 44.5°F6.9°C 75% Calm Calm -- 30.46 in1031.5 mb - 0.00 in0.0 mm 0.00 in0.0 mm
12:00 AM 52.3°F11.3°C 44.6°F7.0°C 75% Calm Calm -- 30.46 in1031.5 mb - 0.00 in0.0 mm 0.00 in0.0 mm